Terminal Aerodrome Forecast
Issued by NWS

Home | Current Version | Previous Version | Text Only | Print | Product List | Glossary On
Versions: 1 2 3 4 5 6 7 8 9 10 11 12 13 14 15 16 17 18 19 20 21 22 23 24 25 26 27 28 29 30
000
FTUS44 KTSA 222337
TAFMLC
TAF
KMLC 222337Z 2300/2324 17006G22KT P6SM FEW050 BKN080
     FM230200 17010KT P6SM SCT040 BKN100
      TEMPO 2310/2314 BKN025
     FM231400 18010KT P6SM SCT025 BKN035=

USA.gov is the U.S. government's official web portal to all federal, state and local government web resources and services.